Time;durP1;ratioP1;P1;durP2;ratioP2;P2;SDS_P1;SDS_P2;PMS_P1;PMS_P2;Temp;Humidity;BMP_temperature;BMP_pressure;BME280_temperature;BME280_humidity;BME280_pressure;Samples;Min_cycle;Max_cycle;Signal;HPM_P1;HPM_P2
2023/12/25 00:00:27;;;;;;;18.33;5.20;;;;;;;9.24;100.00;98061.66;5083377;28;20024;-79
2023/12/25 00:02:52;;;;;;;15.73;3.47;;;;;;;9.20;100.00;98068.47;5077340;28;20096;-78
2023/12/25 00:05:17;;;;;;;20.07;4.00;;;;;;;9.25;100.00;98095.25;5070325;28;20040;-80
2023/12/25 00:07:43;;;;;;;13.93;3.27;;;;;;;9.25;100.00;98107.75;5058643;28;20040;-80
2023/12/25 00:10:08;;;;;;;17.77;3.07;;;;;;;9.32;100.00;98099.69;5066960;28;20100;-79
2023/12/25 00:12:33;;;;;;;16.03;3.87;;;;;;;9.22;100.00;98089.53;5089350;28;20400;-79
2023/12/25 00:14:59;;;;;;;18.07;2.47;;;;;;;9.30;100.00;98124.69;5078463;28;20282;-80
2023/12/25 00:17:24;;;;;;;23.67;5.43;;;;;;;9.26;100.00;98118.16;5063642;28;20124;-79
2023/12/25 00:19:49;;;;;;;21.70;4.37;;;;;;;9.36;100.00;98116.84;5072635;28;20105;-81
2023/12/25 00:22:15;;;;;;;19.37;4.30;;;;;;;9.39;100.00;98124.41;5087904;28;20028;-80
2023/12/25 00:24:40;;;;;;;22.13;3.87;;;;;;;9.30;100.00;98159.31;5082040;28;20119;-79
2023/12/25 00:27:06;;;;;;;15.90;2.78;;;;;;;9.39;100.00;98202.47;5088834;28;20038;-79
2023/12/25 00:29:31;;;;;;;20.13;3.33;;;;;;;9.42;100.00;98283.78;5092459;28;20124;-80
2023/12/25 00:31:56;;;;;;;20.37;3.67;;;;;;;9.34;100.00;98305.31;5086716;28;20028;-79
2023/12/25 00:34:22;;;;;;;14.73;3.60;;;;;;;9.35;100.00;98330.94;5088756;28;20028;-79
2023/12/25 00:36:47;;;;;;;25.07;3.73;;;;;;;9.34;100.00;98298.16;5075144;28;20093;-80
2023/12/25 00:39:13;;;;;;;19.53;4.27;;;;;;;9.31;100.00;98279.94;5075056;28;20307;-80
2023/12/25 00:41:38;;;;;;;15.15;3.30;;;;;;;9.33;100.00;98279.72;5074704;28;20040;-78
2023/12/25 00:44:04;;;;;;;20.37;3.10;;;;;;;9.28;100.00;98249.22;5077503;28;20487;-80
2023/12/25 00:46:29;;;;;;;17.13;2.90;;;;;;;9.33;100.00;98299.19;5077644;28;20307;-79
2023/12/25 00:48:54;;;;;;;15.23;3.47;;;;;;;9.39;100.00;98261.06;5077047;28;20032;-80
2023/12/25 00:51:20;;;;;;;23.93;4.87;;;;;;;9.42;100.00;98238.50;5094581;28;20028;-79
2023/12/25 00:53:45;;;;;;;25.10;4.90;;;;;;;9.35;100.00;98187.13;5088314;28;20146;-79
2023/12/25 00:56:11;;;;;;;23.50;3.37;;;;;;;9.42;100.00;98236.63;5088360;28;20293;-78
2023/12/25 00:58:36;;;;;;;19.90;3.20;;;;;;;9.40;100.00;98217.41;5072412;28;20565;-79
2023/12/25 01:01:02;;;;;;;20.23;4.50;;;;;;;9.42;100.00;98193.22;5068376;28;20063;-79
2023/12/25 01:03:27;;;;;;;18.05;3.45;;;;;;;9.45;100.00;98179.47;5073615;28;20037;-80
2023/12/25 01:05:52;;;;;;;25.83;4.83;;;;;;;9.30;100.00;98172.63;5095290;28;20027;-79
2023/12/25 01:08:18;;;;;;;26.93;5.30;;;;;;;9.44;100.00;98220.47;5091654;28;20031;-79
2023/12/25 01:10:43;;;;;;;24.10;4.17;;;;;;;9.17;100.00;98284.50;5076357;28;20041;-79
2023/12/25 01:13:08;;;;;;;23.70;3.90;;;;;;;9.13;100.00;98445.72;5065922;28;20029;-79
2023/12/25 01:15:34;;;;;;;22.60;3.50;;;;;;;8.96;100.00;98447.16;5073839;28;20024;-79
2023/12/25 01:17:59;;;;;;;31.93;5.20;;;;;;;9.08;100.00;98454.31;5064277;28;20043;-79
2023/12/25 01:20:25;;;;;;;25.33;3.22;;;;;;;9.11;100.00;98402.50;5090498;28;20032;-79
2023/12/25 01:22:51;;;;;;;24.95;3.50;;;;;;;9.21;100.00;98370.91;5063763;28;20033;-79
2023/12/25 01:25:17;;;;;;;17.25;4.28;;;;;;;9.21;100.00;98354.94;5083962;28;20081;-78
2023/12/25 01:27:43;;;;;;;25.27;5.32;;;;;;;9.26;100.00;98306.38;5073075;28;20044;-78
2023/12/25 01:30:12;;;;;;;28.20;3.77;;;;;;;9.27;100.00;98302.69;5087116;28;20028;-79
2023/12/25 01:32:38;;;;;;;18.05;4.35;;;;;;;9.24;100.00;98375.00;5086852;28;20070;-78
2023/12/25 01:35:04;;;;;;;15.73;3.50;;;;;;;9.17;100.00;98401.66;5085273;28;20024;-80
2023/12/25 01:37:29;;;;;;;;;;;;;;;9.06;100.00;98461.69;5083755;28;20321;-79
2023/12/25 01:39:55;;;;;;;24.27;4.47;;;;;;;9.07;100.00;98497.91;5093279;28;20277;-79
2023/12/25 01:42:21;;;;;;;;;;;;;;;8.98;100.00;98493.03;5074147;28;20034;-79
2023/12/25 01:44:47;;;;;;;28.70;4.80;;;;;;;9.06;100.00;98479.47;5093621;28;20007;-79
2023/12/25 01:47:15;;;;;;;20.40;4.25;;;;;;;9.12;100.00;98484.00;5086943;28;20038;-79
2023/12/25 01:49:41;;;;;;;24.20;4.72;;;;;;;9.16;100.00;98463.09;5081403;28;20513;-80
2023/12/25 01:52:07;;;;;;;23.75;4.45;;;;;;;9.15;100.00;98438.31;5089971;28;20101;-79
2023/12/25 01:54:33;;;;;;;20.77;3.70;;;;;;;9.22;100.00;98407.16;5071226;28;20036;-78
2023/12/25 01:56:59;;;;;;;30.38;4.53;;;;;;;9.19;100.00;98343.69;5081247;28;20039;-78
2023/12/25 01:59:28;;;;;;;21.60;4.78;;;;;;;9.08;100.00;98313.25;5076614;28;20025;-78
2023/12/25 02:01:54;;;;;;;26.30;4.05;;;;;;;9.17;100.00;98300.50;5075616;28;20478;-79
2023/12/25 02:04:20;;;;;;;23.02;5.25;;;;;;;9.21;100.00;98291.06;5088419;28;20585;-79
2023/12/25 02:06:46;;;;;;;19.20;3.50;;;;;;;9.23;100.00;98285.53;5088312;28;20020;-79
2023/12/25 02:09:13;;;;;;;19.63;4.68;;;;;;;9.21;100.00;98247.66;5063715;28;20031;-78
2023/12/25 02:11:42;;;;;;;23.48;5.00;;;;;;;9.29;100.00;98293.47;5078745;28;20040;-78
2023/12/25 02:14:09;;;;;;;24.25;5.53;;;;;;;9.23;100.00;98267.69;5070533;28;20024;-78
2023/12/25 02:16:36;;;;;;;24.58;3.58;;;;;;;9.23;100.00;98234.94;5070289;28;20036;-78
2023/12/25 02:19:04;;;;;;;17.85;3.53;;;;;;;9.29;100.00;98236.72;5071295;28;20024;-78
2023/12/25 02:21:30;;;;;;;21.00;4.82;;;;;;;9.21;100.00;98227.16;5088505;28;20031;-77
2023/12/25 02:24:00;;;;;;;27.50;4.30;;;;;;;9.23;100.00;98214.44;5091200;28;20119;-79
2023/12/25 02:26:25;;;;;;;31.25;7.38;;;;;;;9.36;100.00;98226.03;5072641;28;20064;-79
2023/12/25 02:28:51;;;;;;;26.40;5.40;;;;;;;9.20;100.00;98177.63;5081640;28;20092;-78
2023/12/25 02:31:17;;;;;;;25.55;6.78;;;;;;;9.29;100.00;98186.13;5062129;28;20055;-78
2023/12/25 02:33:43;;;;;;;30.73;4.38;;;;;;;9.17;100.00;98150.59;5078903;28;20430;-79
2023/12/25 02:36:08;;;;;;;17.83;3.83;;;;;;;9.23;100.00;98160.41;5087397;28;20744;-78
2023/12/25 02:38:35;;;;;;;22.13;3.95;;;;;;;9.24;100.00;98176.13;5057749;28;20438;-79
2023/12/25 02:41:00;;;;;;;22.33;4.23;;;;;;;9.19;100.00;98165.31;5084474;28;20035;-79
2023/12/25 02:43:26;;;;;;;24.67;3.73;;;;;;;9.16;100.00;98107.19;5088940;28;20035;-78
2023/12/25 02:45:51;;;;;;;25.53;4.63;;;;;;;9.22;100.00;98106.31;5075029;28;20024;-78
2023/12/25 02:48:16;;;;;;;20.33;3.83;;;;;;;9.18;100.00;98089.16;5094201;28;20521;-78
2023/12/25 02:50:42;;;;;;;18.20;4.25;;;;;;;9.15;100.00;98078.94;5089445;28;20032;-77
2023/12/25 02:53:08;;;;;;;22.03;3.87;;;;;;;9.03;100.00;98067.38;5075223;28;20032;-77
2023/12/25 02:55:33;;;;;;;23.77;4.40;;;;;;;9.16;100.00;98111.72;5073624;28;20059;-75
2023/12/25 02:57:59;;;;;;;23.73;5.03;;;;;;;9.11;100.00;98103.53;5084765;28;20028;-77
2023/12/25 03:00:24;;;;;;;23.57;4.93;;;;;;;9.16;100.00;98154.31;5091947;28;20032;-77
2023/12/25 03:02:49;;;;;;;20.30;3.70;;;;;;;9.16;100.00;98128.50;5074295;28;20282;-77
2023/12/25 03:05:14;;;;;;;21.50;4.50;;;;;;;8.99;100.00;98106.09;5088310;28;20043;-76
2023/12/25 03:07:40;;;;;;;26.37;6.07;;;;;;;9.04;100.00;98098.31;5074456;28;20043;-76
2023/12/25 03:10:06;;;;;;;30.23;4.83;;;;;;;9.07;100.00;98090.69;5067424;28;20093;-76
2023/12/25 03:12:31;;;;;;;23.08;4.68;;;;;;;9.05;100.00;98084.75;5089041;28;20020;-76
2023/12/25 03:14:56;;;;;;;29.53;6.33;;;;;;;8.93;100.00;98048.44;5071223;28;20646;-77
2023/12/25 03:17:22;;;;;;;22.00;4.77;;;;;;;8.95;100.00;98033.06;5084503;28;20040;-76
2023/12/25 03:19:47;;;;;;;26.03;3.80;;;;;;;8.96;100.00;98048.81;5079659;28;20033;-76
2023/12/25 03:22:12;;;;;;;26.17;4.10;;;;;;;8.75;100.00;98042.00;5083241;28;20032;-76
2023/12/25 03:24:38;;;;;;;25.37;5.13;;;;;;;8.86;100.00;98065.25;5073182;28;20112;-77
2023/12/25 03:27:03;;;;;;;23.13;4.70;;;;;;;8.87;100.00;98063.41;5067331;28;20028;-75
2023/12/25 03:29:29;;;;;;;26.33;4.53;;;;;;;8.72;100.00;98069.06;5072576;28;20055;-76
2023/12/25 03:31:55;;;;;;;24.67;4.07;;;;;;;8.80;100.00;98066.16;5087427;28;20395;-76
2023/12/25 03:34:21;;;;;;;20.25;5.05;;;;;;;8.76;100.00;98098.72;5072062;28;20058;-77
2023/12/25 03:36:46;;;;;;;33.43;5.10;;;;;;;8.71;100.00;98094.03;5089104;28;20032;-76
2023/12/25 03:39:11;;;;;;;28.20;5.60;;;;;;;8.74;100.00;98122.06;5089504;28;20027;-77
2023/12/25 03:41:37;;;;;;;30.23;4.33;;;;;;;8.61;100.00;98077.72;5065073;28;20043;-77
2023/12/25 03:44:02;;;;;;;30.80;4.77;;;;;;;8.75;100.00;98119.16;5073315;28;20112;-76
2023/12/25 03:46:28;;;;;;;24.77;5.13;;;;;;;8.67;100.00;98119.44;5087811;28;20031;-75
2023/12/25 03:48:53;;;;;;;29.58;8.52;;;;;;;8.71;100.00;98136.59;5070384;28;20031;-77
2023/12/25 03:51:20;;;;;;;29.70;6.32;;;;;;;8.75;100.00;98103.19;5072362;28;20023;-77
2023/12/25 03:53:46;;;;;;;29.10;6.07;;;;;;;8.63;100.00;98054.41;5090687;28;20028;-76
2023/12/25 03:56:16;;;;;;;35.40;5.20;;;;;;;8.61;100.00;98051.94;5089036;28;20023;-75
2023/12/25 03:58:41;;;;;;;36.42;5.97;;;;;;;8.63;100.00;98035.78;5081874;28;20071;-75
2023/12/25 04:01:07;;;;;;;20.63;6.63;;;;;;;8.65;100.00;98066.44;5066062;28;20581;-77
2023/12/25 04:03:32;;;;;;;30.40;6.30;;;;;;;8.58;100.00;98057.69;5062349;28;20500;-75
2023/12/25 04:05:57;;;;;;;25.87;4.70;;;;;;;8.57;100.00;98002.06;5091425;28;20019;-76
2023/12/25 04:08:23;;;;;;;26.00;5.37;;;;;;;8.68;100.00;98000.56;5083457;28;20043;-77
2023/12/25 04:10:48;;;;;;;23.60;4.97;;;;;;;8.61;100.00;97971.34;5068165;28;20036;-79
2023/12/25 04:13:14;;;;;;;25.93;4.47;;;;;;;8.71;100.00;98019.56;5071751;28;20027;-79
2023/12/25 04:15:39;;;;;;;25.40;4.10;;;;;;;8.62;100.00;98037.63;5072047;28;20024;-78
2023/12/25 04:18:04;;;;;;;27.50;5.53;;;;;;;8.57;100.00;98044.59;5085315;28;20484;-78
2023/12/25 04:20:30;;;;;;;29.77;5.00;;;;;;;8.55;100.00;98047.50;5083351;28;20407;-79
2023/12/25 04:22:55;;;;;;;27.20;4.80;;;;;;;8.56;100.00;98064.25;5061689;28;20107;-78
2023/12/25 04:25:20;;;;;;;43.70;9.00;;;;;;;8.55;100.00;98113.19;5075560;28;20028;-78
2023/12/25 04:27:46;;;;;;;28.13;4.73;;;;;;;8.53;100.00;98121.34;5085412;28;20028;-79
2023/12/25 04:30:11;;;;;;;26.42;5.18;;;;;;;8.42;100.00;98101.56;5082488;28;20039;-79
2023/12/25 04:32:37;;;;;;;26.98;4.85;;;;;;;8.50;100.00;98107.66;5086135;28;20453;-79
2023/12/25 04:35:02;;;;;;;36.83;4.73;;;;;;;8.56;100.00;98133.41;5084884;28;20482;-78
2023/12/25 04:37:27;;;;;;;26.77;4.77;;;;;;;8.47;100.00;98140.81;5072068;28;20493;-78
2023/12/25 04:39:53;;;;;;;35.77;5.37;;;;;;;8.30;100.00;98148.44;5071425;28;20024;-78
2023/12/25 04:42:18;;;;;;;30.37;4.93;;;;;;;8.36;100.00;98223.88;5075321;28;20383;-79
2023/12/25 04:44:43;;;;;;;33.97;7.00;;;;;;;8.48;100.00;98263.97;5088275;28;20081;-79
2023/12/25 04:47:09;;;;;;;33.03;5.90;;;;;;;8.37;100.00;98258.22;5073795;28;20262;-78
2023/12/25 04:49:34;;;;;;;34.03;5.45;;;;;;;8.34;100.00;98261.31;5087717;28;20028;-78
2023/12/25 04:52:00;;;;;;;40.67;7.20;;;;;;;8.33;100.00;98285.44;5073389;28;20020;-79
2023/12/25 04:54:25;;;;;;;24.67;5.53;;;;;;;8.30;100.00;98289.31;5083924;28;20111;-78
2023/12/25 04:56:52;;;;;;;37.77;7.07;;;;;;;8.29;100.00;98308.13;5087880;28;20024;-78
2023/12/25 04:59:20;;;;;;;37.30;6.82;;;;;;;8.35;100.00;98334.69;5069178;28;20483;-79
2023/12/25 05:01:48;;;;;;;25.48;5.18;;;;;;;8.31;100.00;98317.56;5090176;28;20084;-78
2023/12/25 05:04:14;;;;;;;28.88;3.90;;;;;;;8.19;100.00;98298.75;5092934;28;20012;-78
2023/12/25 05:06:40;;;;;;;25.80;6.68;;;;;;;8.15;100.00;98325.97;5084298;28;20033;-78
2023/12/25 05:09:06;;;;;;;31.47;6.27;;;;;;;8.17;100.00;98322.06;5084849;28;20027;-79
2023/12/25 05:11:31;;;;;;;22.17;3.75;;;;;;;8.16;100.00;98314.28;5086876;28;20039;-79
2023/12/25 05:13:57;;;;;;;32.13;4.63;;;;;;;8.10;100.00;98268.09;5086356;28;20035;-78
2023/12/25 05:16:22;;;;;;;34.43;4.13;;;;;;;7.90;100.00;98257.50;5071554;28;20038;-79
2023/12/25 05:18:47;;;;;;;41.70;7.07;;;;;;;8.04;100.00;98242.34;5074512;28;20099;-79
2023/12/25 05:21:13;;;;;;;21.40;4.10;;;;;;;8.00;100.00;98203.94;5087981;28;20096;-78
2023/12/25 05:23:38;;;;;;;15.97;4.17;;;;;;;7.90;100.00;98151.22;5090733;28;20089;-79
2023/12/25 05:26:04;;;;;;;23.27;4.03;;;;;;;8.00;100.00;98135.66;5092229;28;20542;-79
2023/12/25 05:28:29;;;;;;;25.37;5.53;;;;;;;7.92;100.00;98143.06;5091426;28;20383;-78
2023/12/25 05:30:54;;;;;;;19.03;4.70;;;;;;;7.87;100.00;98138.38;5087593;28;20032;-78
2023/12/25 05:33:20;;;;;;;22.00;4.37;;;;;;;7.75;100.00;98169.22;5091518;28;20111;-78
2023/12/25 05:35:45;;;;;;;14.77;4.65;;;;;;;7.72;100.00;98175.78;5087466;28;20283;-78
2023/12/25 05:38:11;;;;;;;29.73;4.97;;;;;;;7.82;100.00;98162.09;5074470;28;20020;-79
2023/12/25 05:40:36;;;;;;;28.00;6.05;;;;;;;7.87;100.00;98166.78;5083043;28;20483;-79
2023/12/25 05:43:03;;;;;;;36.37;5.57;;;;;;;7.74;100.00;98152.47;5092919;28;20055;-78
2023/12/25 05:45:28;;;;;;;26.58;5.03;;;;;;;7.67;100.00;98140.25;5087925;28;20025;-78
2023/12/25 05:47:53;;;;;;;27.40;5.07;;;;;;;7.72;100.00;98167.00;5096848;28;20051;-79
2023/12/25 05:50:19;;;;;;;34.07;6.07;;;;;;;7.72;100.00;98186.41;5074054;28;20020;-79
2023/12/25 05:52:45;;;;;;;34.72;7.97;;;;;;;7.74;100.00;98184.34;5089581;28;20095;-79
2023/12/25 05:55:11;;;;;;;33.27;6.37;;;;;;;7.86;100.00;98179.22;5087810;28;20037;-78
2023/12/25 05:57:36;;;;;;;33.53;5.40;;;;;;;7.95;100.00;98180.63;5091387;28;20028;-79
2023/12/25 06:00:02;;;;;;;23.92;4.65;;;;;;;7.86;100.00;98176.56;5093699;28;20387;-79
2023/12/25 06:02:37;;;;;;;30.20;6.50;;;;;;;7.82;100.00;98186.81;5093428;28;20036;-78
2023/12/25 06:05:03;;;;;;;35.22;5.55;;;;;;;7.85;100.00;98184.75;5096735;28;20089;-79
2023/12/25 06:07:28;;;;;;;32.03;5.13;;;;;;;7.79;100.00;98223.56;5093804;28;20040;-78
2023/12/25 06:09:54;;;;;;;38.63;4.90;;;;;;;7.79;100.00;98289.97;5079513;28;20138;-78
2023/12/25 06:12:19;;;;;;;40.27;7.27;;;;;;;7.74;100.00;98285.28;5091501;28;20027;-78
2023/12/25 06:14:44;;;;;;;21.60;3.93;;;;;;;7.67;100.00;98296.94;5084962;28;20032;-78
2023/12/25 06:17:09;;;;;;;31.40;5.17;;;;;;;7.71;100.00;98285.69;5088377;28;20061;-78
2023/12/25 06:19:35;;;;;;;26.70;4.63;;;;;;;7.65;100.00;98219.31;5092653;28;20082;-77
2023/12/25 06:22:00;;;;;;;26.73;5.17;;;;;;;7.59;100.00;98181.13;5096801;28;20042;-79
2023/12/25 06:24:25;;;;;;;36.33;6.23;;;;;;;7.63;100.00;98177.00;5096894;28;20485;-78
2023/12/25 06:26:51;;;;;;;21.47;5.07;;;;;;;7.49;100.00;98138.22;5091802;28;20566;-78
2023/12/25 06:29:16;;;;;;;23.17;5.13;;;;;;;7.14;100.00;98152.56;5075886;28;20307;-79
2023/12/25 06:31:46;;;;;;;20.93;5.43;;;;;;;7.18;100.00;98297.03;5084400;28;20072;-78
2023/12/25 06:34:12;;;;;;;15.27;3.95;;;;;;;6.90;100.00;98455.50;5071873;28;20036;-78
2023/12/25 06:36:37;;;;;;;21.20;5.47;;;;;;;6.62;100.00;98546.47;5088163;28;20019;-79
2023/12/25 06:39:02;;;;;;;15.93;4.17;;;;;;;6.67;100.00;98697.06;5095609;28;20088;-77
2023/12/25 06:41:28;;;;;;;31.65;5.90;;;;;;;6.55;100.00;98747.94;5094235;28;20426;-79
2023/12/25 06:43:53;;;;;;;31.10;5.60;;;;;;;6.62;100.00;98779.00;5073640;28;20483;-79
2023/12/25 06:46:18;;;;;;;27.50;5.93;;;;;;;6.70;100.00;98808.91;5088963;28;20479;-78
2023/12/25 06:48:44;;;;;;;32.37;5.83;;;;;;;6.69;100.00;98812.53;5085497;28;20028;-78
2023/12/25 06:51:09;;;;;;;29.13;5.03;;;;;;;6.68;100.00;98775.63;5083993;28;20036;-78
2023/12/25 06:53:34;;;;;;;24.93;5.20;;;;;;;6.79;100.00;98739.81;5067924;28;20273;-79
2023/12/25 06:56:01;;;;;;;36.07;8.80;;;;;;;6.80;100.00;98660.06;5085858;28;20101;-78
2023/12/25 06:58:26;;;;;;;36.63;6.60;;;;;;;6.93;100.00;98659.38;5093586;28;20031;-78
2023/12/25 07:00:51;;;;;;;41.57;5.77;;;;;;;6.79;100.00;98633.72;5097530;28;20071;-79
2023/12/25 07:03:18;;;;;;;27.23;4.83;;;;;;;6.75;100.00;98583.72;5073804;28;20039;-78
2023/12/25 07:05:44;;;;;;;34.88;6.25;;;;;;;6.74;100.00;98542.31;5097782;28;20039;-78
2023/12/25 07:08:09;;;;;;;27.73;5.50;;;;;;;6.84;100.00;98498.75;5092119;28;20028;-78
2023/12/25 07:10:34;;;;;;;29.73;6.83;;;;;;;6.85;100.00;98444.66;5078006;28;20285;-79
2023/12/25 07:13:00;;;;;;;41.97;6.57;;;;;;;6.83;100.00;98436.88;5087520;28;20032;-78
2023/12/25 07:15:27;;;;;;;24.77;6.00;;;;;;;6.90;100.00;98418.38;5076171;28;20088;-78
2023/12/25 07:17:53;;;;;;;27.65;5.63;;;;;;;6.87;100.00;98341.84;5082229;28;20056;-78
2023/12/25 07:20:18;;;;;;;22.00;4.93;;;;;;;6.79;100.00;98323.44;5092624;28;20035;-77
2023/12/25 07:22:43;;;;;;;33.20;5.20;;;;;;;6.95;100.00;98344.31;5089280;28;20039;-78
2023/12/25 07:25:10;;;;;;;34.93;5.67;;;;;;;6.91;100.00;98306.78;5094279;28;20070;-79
2023/12/25 07:27:36;;;;;;;38.72;4.60;;;;;;;6.96;100.00;98311.50;5085644;28;20757;-77
2023/12/25 07:30:02;;;;;;;;;;;;;;;7.00;100.00;98314.53;5092826;28;20429;-79
2023/12/25 07:32:28;;;;;;;31.10;5.80;;;;;;;6.93;100.00;98317.16;5086772;28;20046;-78
2023/12/25 07:34:53;;;;;;;26.73;5.20;;;;;;;6.92;100.00;98344.72;5082154;28;20037;-79
2023/12/25 07:37:18;;;;;;;30.75;5.35;;;;;;;6.93;100.00;98370.22;5089451;28;20093;-79
2023/12/25 07:39:44;;;;;;;27.53;4.70;;;;;;;6.83;100.00;98344.06;5074865;28;20028;-78
2023/12/25 07:42:09;;;;;;;17.97;4.33;;;;;;;6.94;100.00;98369.22;5082375;28;20063;-76
2023/12/25 07:44:42;;;;;;;26.80;5.28;;;;;;;6.80;100.00;98336.50;5087162;28;20024;-76
2023/12/25 07:47:07;;;;;;;45.95;8.27;;;;;;;6.95;100.00;98320.44;5091396;28;20066;-76
2023/12/25 07:49:32;;;;;;;40.97;6.03;;;;;;;6.80;100.00;98275.50;5059869;28;20053;-75
2023/12/25 07:51:58;;;;;;;22.43;4.60;;;;;;;6.95;100.00;98325.75;5082980;28;20047;-76
2023/12/25 07:54:23;;;;;;;29.90;6.50;;;;;;;6.92;100.00;98313.72;5091044;28;20034;-76
2023/12/25 07:56:49;;;;;;;32.00;6.13;;;;;;;6.93;100.00;98359.59;5092030;28;20311;-76
2023/12/25 07:59:14;;;;;;;23.87;6.70;;;;;;;6.63;100.00;98321.97;5091810;28;20099;-76
2023/12/25 08:01:39;;;;;;;26.10;4.00;;;;;;;6.81;100.00;98285.09;5090746;28;20024;-76
2023/12/25 08:04:05;;;;;;;24.03;3.50;;;;;;;6.78;100.00;98203.28;5090866;28;20273;-77
2023/12/25 08:06:31;;;;;;;24.13;4.53;;;;;;;6.72;100.00;98177.59;5090779;28;20046;-76
2023/12/25 08:08:56;;;;;;;18.48;3.65;;;;;;;6.74;100.00;98141.06;5092218;28;20036;-77
2023/12/25 08:11:21;;;;;;;24.37;3.83;;;;;;;6.74;100.00;98125.16;5074004;28;20020;-76
2023/12/25 08:13:47;;;;;;;30.40;5.20;;;;;;;6.75;100.00;98148.00;5081243;28;20286;-76
2023/12/25 08:16:12;;;;;;;20.47;4.70;;;;;;;6.62;100.00;98132.06;5082793;28;20383;-77
2023/12/25 08:18:37;;;;;;;23.80;4.20;;;;;;;6.64;100.00;98114.94;5064200;28;20023;-78
2023/12/25 08:21:04;;;;;;;27.33;4.67;;;;;;;6.58;100.00;98104.31;5086156;28;20105;-78
2023/12/25 08:23:29;;;;;;;;;;;;;;;6.59;100.00;98116.56;5091260;28;20276;-79
2023/12/25 08:25:54;;;;;;;20.90;4.65;;;;;;;6.69;100.00;98122.28;5091966;28;20014;-79
2023/12/25 08:28:20;;;;;;;32.23;5.97;;;;;;;6.62;100.00;98111.66;5090647;28;20028;-79
2023/12/25 08:30:45;;;;;;;21.83;3.97;;;;;;;6.66;100.00;98136.75;5089154;28;20092;-78
2023/12/25 08:33:10;;;;;;;16.77;3.35;;;;;;;6.60;100.00;98132.25;5090406;28;20035;-78
2023/12/25 08:35:36;;;;;;;24.60;3.87;;;;;;;6.69;100.00;98170.81;5089471;28;20047;-77
2023/12/25 08:38:01;;;;;;;35.93;5.10;;;;;;;6.88;100.00;98208.19;5088141;28;20032;-78
2023/12/25 08:40:27;;;;;;;22.05;5.00;;;;;;;6.97;100.00;98247.59;5089345;28;20028;-78
2023/12/25 08:42:53;;;;;;;;;;;;;;;7.08;100.00;98222.34;5074137;28;20111;-79
2023/12/25 08:45:18;;;;;;;20.88;4.97;;;;;;;7.34;100.00;98256.06;5058461;28;20469;-79
2023/12/25 08:47:43;;;;;;;24.67;4.10;;;;;;;7.45;100.00;98198.91;5079551;28;20123;-78
2023/12/25 08:50:09;;;;;;;27.90;5.23;;;;;;;7.39;100.00;98114.75;5065247;28;20032;-78
2023/12/25 08:52:34;;;;;;;31.30;4.07;;;;;;;7.54;100.00;98098.63;5075209;28;20035;-79
2023/12/25 08:55:00;;;;;;;32.03;4.30;;;;;;;7.50;100.00;98061.03;5084074;28;20028;-78
2023/12/25 08:57:25;;;;;;;32.17;5.23;;;;;;;7.30;100.00;97996.56;5080133;28;20134;-78
2023/12/25 08:59:51;;;;;;;16.67;3.70;;;;;;;7.01;100.00;97897.88;5059435;28;20306;-77
2023/12/25 09:02:19;;;;;;;27.20;5.47;;;;;;;7.02;100.00;97835.81;5079390;28;20079;-79
2023/12/25 09:04:45;;;;;;;37.35;6.57;;;;;;;6.99;100.00;97799.09;5059618;28;20039;-78
2023/12/25 09:07:11;;;;;;;27.10;4.10;;;;;;;6.93;100.00;97778.72;5079694;28;20135;-78
2023/12/25 09:09:36;;;;;;;17.00;3.23;;;;;;;6.90;100.00;97803.03;5080987;28;20032;-79
2023/12/25 09:12:01;;;;;;;23.97;4.83;;;;;;;6.90;100.00;97846.28;5084313;28;20298;-79
2023/12/25 09:14:27;;;;;;;18.35;3.25;;;;;;;6.96;100.00;97906.44;5062636;28;20028;-78
2023/12/25 09:16:52;;;;;;;36.07;4.10;;;;;;;7.29;100.00;97984.31;5077115;28;20090;-78
2023/12/25 09:19:17;;;;;;;21.13;4.00;;;;;;;7.47;100.00;97943.81;5063112;28;20064;-78
2023/12/25 09:21:43;;;;;;;21.37;5.57;;;;;;;7.81;100.00;97977.16;5085383;28;20032;-78
2023/12/25 09:24:08;;;;;;;25.17;3.80;;;;;;;7.59;100.00;97921.72;5070577;28;20040;-78
2023/12/25 09:26:34;;;;;;;18.53;4.13;;;;;;;7.47;100.00;97968.53;5076737;28;20620;-78
2023/12/25 09:28:59;;;;;;;16.83;4.83;;;;;;;7.16;100.00;97948.00;5058776;28;20287;-77
2023/12/25 09:31:24;;;;;;;24.40;5.00;;;;;;;7.37;100.00;98095.56;5083710;28;20111;-78
2023/12/25 09:33:50;;;;;;;35.23;7.03;;;;;;;7.42;100.00;98111.69;5058651;28;20063;-78
2023/12/25 09:36:15;;;;;;;22.00;3.87;;;;;;;7.45;100.00;98206.84;5084323;28;20040;-78
2023/12/25 09:38:40;;;;;;;29.20;4.23;;;;;;;7.69;100.00;98252.41;5082825;28;20035;-78
2023/12/25 09:41:11;;;;;;;25.73;4.43;;;;;;;8.43;100.00;98281.34;5085200;28;20038;-77
2023/12/25 09:43:43;;;;;;;28.08;5.35;;;;;;;8.40;100.00;98106.28;5069261;28;20092;-79
2023/12/25 09:46:12;;;;;;;30.60;4.63;;;;;;;8.17;100.00;98066.09;5075925;28;20615;-79
2023/12/25 09:48:38;;;;;;;27.38;4.78;;;;;;;8.06;100.00;98096.00;5085810;28;20032;-77
2023/12/25 09:51:05;;;;;;;31.83;5.82;;;;;;;7.67;100.00;98052.63;5065901;28;20059;-78
2023/12/25 09:53:31;;;;;;;30.58;5.78;;;;;;;7.97;100.00;98162.66;5073509;28;20032;-78
2023/12/25 09:55:57;;;;;;;27.77;4.37;;;;;;;8.01;100.00;98134.66;5087026;28;20042;-79
2023/12/25 09:58:23;;;;;;;31.75;6.57;;;;;;;7.80;100.00;98060.53;5095032;28;20032;-78
2023/12/25 10:00:49;;;;;;;21.23;3.47;;;;;;;7.87;100.00;98018.84;5086923;28;20047;-78
2023/12/25 10:03:15;;;;;;;22.48;5.07;;;;;;;7.64;100.00;97933.56;5094169;28;20635;-78
2023/12/25 10:05:40;;;;;;;;;;;;;;;7.60;100.00;97925.97;5093834;28;20032;-79
2023/12/25 10:08:06;;;;;;;33.92;6.60;;;;;;;7.79;100.00;97894.22;5078506;28;19920;-78
2023/12/25 10:10:31;;;;;;;22.58;3.63;;;;;;;7.48;100.00;97794.94;5076696;28;20036;-78
2023/12/25 10:13:00;;;;;;;27.17;5.23;;;;;;;7.45;100.00;97835.22;5075027;28;20670;-78
2023/12/25 10:15:26;;;;;;;22.17;4.47;;;;;;;7.52;100.00;97697.13;5075520;28;20036;-79
2023/12/25 10:18:07;;;;;;;18.50;3.63;;;;;;;7.89;100.00;97691.88;5078180;28;20048;-79
2023/12/25 10:20:33;;;;;;;21.92;4.15;;;;;;;8.20;100.00;97523.53;5072803;28;20024;-78
2023/12/25 10:23:00;;;;;;;27.07;4.20;;;;;;;8.47;100.00;97586.97;5070681;28;20097;-77
2023/12/25 10:25:28;;;;;;;26.08;4.32;;;;;;;8.72;100.00;97446.66;5080322;28;20282;-78
2023/12/25 10:27:54;;;;;;;30.33;5.25;;;;;;;8.36;100.00;97314.75;5087708;28;20031;-78
2023/12/25 10:30:21;;;;;;;24.50;6.20;;;;;;;8.35;100.00;97470.75;5090322;28;20399;-76
2023/12/25 10:32:48;;;;;;;23.80;4.03;;;;;;;7.95;100.00;97481.13;5087906;28;20036;-75
2023/12/25 10:35:18;;;;;;;23.98;4.63;;;;;;;7.89;100.00;97671.44;5087175;28;20050;-76
2023/12/25 10:37:45;;;;;;;28.23;4.97;;;;;;;7.82;100.00;97737.91;5088315;28;20060;-76
2023/12/25 10:40:27;;;;;;;29.55;5.95;;;;;;;7.82;100.00;97791.03;5075469;28;20032;-75
2023/12/25 10:42:54;;;;;;;21.73;3.60;;;;;;;7.76;100.00;97775.97;5077877;28;20047;-77
2023/12/25 10:45:27;;;;;;;27.40;5.47;;;;;;;7.88;100.00;97829.19;5094566;28;20039;-78
2023/12/25 10:47:54;;;;;;;36.28;6.93;;;;;;;7.90;100.00;97845.72;5080316;28;20040;-78
2023/12/25 10:50:27;;;;;;;23.73;3.92;;;;;;;7.81;100.00;97815.94;5093710;28;20708;-78
2023/12/25 10:52:54;;;;;;;29.17;5.15;;;;;;;7.68;100.00;97817.88;5075976;28;20669;-78
2023/12/25 10:55:33;;;;;;;17.02;3.15;;;;;;;7.67;100.00;97827.69;5074853;28;20565;-78
2023/12/25 10:57:59;;;;;;;35.13;4.10;;;;;;;7.88;100.00;97916.84;5095270;28;20116;-78
2023/12/25 11:00:28;;;;;;;21.85;3.95;;;;;;;8.12;100.00;97869.25;5093030;28;20106;-77
2023/12/25 11:02:57;;;;;;;16.27;2.95;;;;;;;8.17;100.00;97821.59;5091778;28;20032;-79
2023/12/25 11:05:24;;;;;;;16.05;2.97;;;;;;;8.31;100.00;97660.13;5085449;28;20087;-78
2023/12/25 11:07:49;;;;;;;24.50;3.80;;;;;;;8.84;100.00;97646.97;5068599;28;20024;-78
2023/12/25 11:10:15;;;;;;;17.98;3.50;;;;;;;9.14;100.00;97329.41;5087424;28;20395;-77
2023/12/25 11:12:40;;;;;;;12.98;3.00;;;;;;;9.26;100.00;97159.81;5091900;28;20037;-78
2023/12/25 11:15:06;;;;;;;14.90;3.87;;;;;;;9.17;100.00;96920.97;5073422;28;20036;-78
2023/12/25 11:17:34;;;;;;;17.65;3.95;;;;;;;9.48;100.00;97016.16;5076245;28;20024;-78
2023/12/25 11:20:03;;;;;;;15.60;3.72;;;;;;;9.76;100.00;96984.25;5091851;28;20114;-78